createdAt,value
2023-05-11T00:00:45.748Z,11.80
2023-05-11T00:03:12.487Z,11.80
2023-05-11T00:05:39.292Z,11.80
2023-05-11T00:08:05.917Z,11.80
2023-05-11T00:10:32.491Z,11.80
2023-05-11T00:12:59.107Z,11.80
2023-05-11T00:15:25.884Z,11.80
2023-05-11T00:17:52.489Z,11.80
2023-05-11T00:20:21.367Z,11.80
2023-05-11T00:22:48.127Z,11.80
2023-05-11T00:25:14.814Z,11.80
2023-05-11T00:27:45.724Z,11.80
2023-05-11T00:30:14.694Z,11.80
2023-05-11T00:32:42.318Z,11.80
2023-05-11T00:35:13.050Z,11.80
2023-05-11T00:37:39.674Z,11.80
2023-05-11T00:40:07.198Z,11.80
2023-05-11T00:42:34.112Z,11.80
2023-05-11T00:45:00.946Z,11.80
2023-05-11T00:47:28.220Z,11.80
2023-05-11T00:49:55.257Z,11.70
2023-05-11T00:52:22.237Z,11.70
2023-05-11T00:54:49.267Z,11.70
2023-05-11T00:57:16.542Z,11.70
2023-05-11T00:59:43.202Z,11.70
2023-05-11T01:02:10.494Z,11.70
2023-05-11T01:04:37.406Z,11.70
2023-05-11T01:07:14.090Z,11.70
2023-05-11T01:10:01.387Z,11.60
2023-05-11T01:12:46.250Z,11.60
2023-05-11T01:15:23.450Z,11.50
2023-05-11T01:17:57.794Z,11.50
2023-05-11T01:20:27.808Z,11.50
2023-05-11T01:23:14.297Z,11.50
2023-05-11T01:26:16.437Z,11.50
2023-05-11T01:29:13.061Z,11.50
2023-05-11T01:31:42.953Z,11.50
2023-05-11T01:34:20.067Z,11.40
2023-05-11T01:37:05.080Z,11.40
2023-05-11T01:39:42.614Z,11.30
2023-05-11T01:42:10.464Z,11.30
2023-05-11T01:44:42.183Z,11.30
2023-05-11T01:47:10.445Z,11.30
2023-05-11T01:49:41.252Z,11.30
2023-05-11T01:52:09.751Z,11.40
2023-05-11T01:54:38.617Z,11.30
2023-05-11T01:57:06.779Z,11.30
2023-05-11T01:59:35.077Z,11.30
2023-05-11T02:02:03.932Z,11.30
2023-05-11T02:04:31.639Z,11.20
2023-05-11T02:07:01.021Z,11.20
2023-05-11T02:09:30.212Z,11.20
2023-05-11T02:11:58.697Z,11.20
2023-05-11T02:14:28.415Z,11.30
2023-05-11T02:16:56.484Z,11.20
2023-05-11T02:19:23.129Z,11.30
2023-05-11T02:21:53.039Z,11.30
2023-05-11T02:24:20.939Z,11.30
2023-05-11T02:26:47.570Z,11.20
2023-05-11T02:29:14.163Z,11.20
2023-05-11T02:31:44.305Z,11.10
2023-05-11T02:34:26.194Z,11.10
2023-05-11T02:37:02.359Z,11.10
2023-05-11T02:39:34.844Z,11.10
2023-05-11T02:42:15.700Z,11.10
2023-05-11T02:44:50.625Z,11.10
2023-05-11T02:47:19.410Z,11.00
2023-05-11T02:49:49.548Z,11.00
2023-05-11T02:52:17.618Z,11.00
2023-05-11T02:54:44.633Z,11.00
2023-05-11T02:57:11.432Z,11.00
2023-05-11T02:59:38.139Z,11.00
2023-05-11T03:02:05.135Z,11.00
2023-05-11T03:04:31.999Z,11.00
2023-05-11T03:06:58.637Z,11.00
2023-05-11T03:09:25.284Z,10.90
2023-05-11T03:11:52.028Z,11.00
2023-05-11T03:14:18.925Z,10.90
2023-05-11T03:16:47.199Z,10.90
2023-05-11T03:19:15.028Z,10.90
2023-05-11T03:21:41.856Z,10.90
2023-05-11T03:24:10.157Z,10.80
2023-05-11T03:26:37.630Z,10.80
2023-05-11T03:29:04.845Z,10.80
2023-05-11T03:31:31.576Z,10.80
2023-05-11T03:33:58.490Z,10.80
2023-05-11T03:36:27.554Z,10.80
2023-05-11T03:38:57.850Z,10.80
2023-05-11T03:41:26.605Z,10.80
2023-05-11T03:43:55.885Z,10.80
2023-05-11T03:46:24.975Z,10.80
2023-05-11T03:48:52.605Z,10.80
2023-05-11T03:51:20.198Z,10.80
2023-05-11T03:53:47.083Z,10.80
2023-05-11T03:56:13.681Z,10.80
2023-05-11T03:58:40.936Z,10.80
2023-05-11T04:01:09.468Z,10.80
2023-05-11T04:03:48.312Z,10.80
2023-05-11T04:06:17.013Z,10.80
2023-05-11T04:08:44.181Z,10.80
2023-05-11T04:11:11.211Z,10.80
2023-05-11T04:13:37.879Z,10.80
2023-05-11T04:16:04.758Z,10.80
2023-05-11T04:18:31.445Z,10.70
2023-05-11T04:20:58.077Z,10.70
2023-05-11T04:23:24.625Z,10.70
2023-05-11T04:25:55.023Z,10.70
2023-05-11T04:28:27.614Z,10.70
2023-05-11T04:30:55.120Z,10.80
2023-05-11T04:33:22.062Z,10.80
2023-05-11T04:35:53.288Z,10.80
2023-05-11T04:38:20.837Z,10.80
2023-05-11T04:40:48.151Z,10.80
2023-05-11T04:43:14.986Z,10.90
2023-05-11T04:45:41.659Z,10.90
2023-05-11T04:48:08.344Z,11.00
2023-05-11T04:50:36.466Z,11.00
2023-05-11T04:53:03.065Z,11.00
2023-05-11T04:55:29.690Z,11.10
2023-05-11T04:57:56.255Z,11.10
2023-05-11T05:00:22.928Z,11.10
2023-05-11T05:02:50.841Z,11.20
2023-05-11T05:05:17.994Z,11.20
2023-05-11T05:07:44.602Z,11.30
2023-05-11T05:10:12.330Z,11.30
2023-05-11T05:12:39.395Z,11.40
2023-05-11T05:15:06.671Z,11.40
2023-05-11T05:17:33.874Z,11.40
2023-05-11T05:20:00.603Z,11.40
2023-05-11T05:22:27.379Z,11.50
2023-05-11T05:24:53.979Z,11.50
2023-05-11T05:27:20.607Z,11.50
2023-05-11T05:29:47.204Z,11.50
2023-05-11T05:32:13.950Z,11.60
2023-05-11T05:34:40.551Z,11.70
2023-05-11T05:37:07.139Z,11.70
2023-05-11T05:39:33.804Z,11.70
2023-05-11T05:42:00.546Z,11.70
2023-05-11T05:44:27.151Z,11.70
2023-05-11T05:46:53.770Z,11.70
2023-05-11T05:49:20.611Z,11.80
2023-05-11T05:51:47.202Z,11.80
2023-05-11T05:54:13.820Z,11.80
2023-05-11T05:56:40.865Z,11.80
2023-05-11T05:59:10.863Z,11.90
2023-05-11T06:01:41.252Z,11.90
2023-05-11T06:04:08.039Z,11.90
2023-05-11T06:06:34.825Z,11.90
2023-05-11T06:09:01.427Z,11.90
2023-05-11T06:11:27.975Z,11.90
2023-05-11T06:13:54.558Z,11.90
2023-05-11T06:16:21.274Z,11.90
2023-05-11T06:18:48.152Z,11.90
2023-05-11T06:21:14.754Z,12.00
2023-05-11T06:23:41.361Z,12.00
2023-05-11T06:26:08.030Z,12.10
2023-05-11T06:28:34.726Z,12.10
2023-05-11T06:31:03.584Z,12.30
2023-05-11T06:33:30.534Z,12.40
2023-05-11T06:35:57.299Z,12.50
2023-05-11T06:38:23.923Z,12.50
2023-05-11T06:40:53.677Z,12.60
2023-05-11T06:43:20.240Z,12.60
2023-05-11T06:45:46.932Z,12.70
2023-05-11T06:48:13.745Z,12.70
2023-05-11T06:50:40.724Z,12.70
2023-05-11T06:53:08.057Z,12.80
2023-05-11T06:55:34.612Z,12.80
2023-05-11T06:58:01.186Z,12.70
2023-05-11T07:00:27.807Z,12.70
2023-05-11T07:02:54.618Z,12.70
2023-05-11T07:05:21.270Z,12.70
2023-05-11T07:07:48.684Z,12.70
2023-05-11T07:10:15.316Z,12.70
2023-05-11T07:12:41.942Z,12.80
2023-05-11T07:15:09.050Z,12.80
2023-05-11T07:17:35.638Z,13.00
2023-05-11T07:20:02.477Z,13.10
2023-05-11T07:22:29.039Z,13.10
2023-05-11T07:24:55.631Z,13.10
2023-05-11T07:27:22.163Z,13.00
2023-05-11T07:29:48.713Z,13.00
2023-05-11T07:32:15.295Z,13.00
2023-05-11T07:34:42.249Z,13.10
2023-05-11T07:37:09.066Z,13.20
2023-05-11T07:39:35.776Z,13.20
2023-05-11T07:42:02.391Z,13.20
2023-05-11T07:44:29.007Z,13.20
2023-05-11T07:46:55.736Z,13.30
2023-05-11T07:49:28.239Z,13.40
2023-05-11T07:52:06.326Z,13.40
2023-05-11T07:54:33.010Z,13.50
2023-05-11T07:56:59.727Z,13.70
2023-05-11T07:59:26.284Z,13.70
2023-05-11T08:01:52.928Z,13.80
2023-05-11T08:04:19.514Z,13.90
2023-05-11T08:06:46.114Z,14.00
2023-05-11T08:09:12.724Z,14.10
2023-05-11T08:11:39.323Z,14.20
2023-05-11T08:14:05.886Z,14.30
2023-05-11T08:16:32.665Z,14.30
2023-05-11T08:18:59.389Z,14.40
2023-05-11T08:21:26.243Z,14.50
2023-05-11T08:23:52.904Z,14.60
2023-05-11T08:26:19.819Z,14.70
2023-05-11T08:28:46.593Z,14.70
2023-05-11T08:31:14.440Z,14.70
2023-05-11T08:33:41.119Z,14.80
2023-05-11T08:36:08.680Z,14.90
2023-05-11T08:38:35.807Z,14.90
2023-05-11T08:41:03.079Z,15.00
2023-05-11T08:43:31.096Z,15.10
2023-05-11T08:46:02.583Z,15.30
2023-05-11T08:48:30.750Z,15.50
2023-05-11T08:50:57.698Z,15.60
2023-05-11T08:53:24.751Z,15.60
2023-05-11T08:55:52.116Z,15.70
2023-05-11T08:58:21.726Z,15.80
2023-05-11T09:00:51.905Z,15.90
2023-05-11T09:03:19.467Z,16.10
2023-05-11T09:05:47.705Z,16.30
2023-05-11T09:08:17.144Z,16.40
2023-05-11T09:10:44.784Z,16.60
2023-05-11T09:13:11.770Z,16.60
2023-05-11T09:15:38.582Z,16.80
2023-05-11T09:18:05.624Z,17.10
2023-05-11T09:20:34.090Z,17.30
2023-05-11T09:23:01.285Z,17.60
2023-05-11T09:25:32.961Z,17.90
2023-05-11T09:28:00.287Z,18.20
2023-05-11T09:30:27.537Z,18.80
2023-05-11T09:32:56.353Z,19.50
2023-05-11T09:35:30.119Z,20.00
2023-05-11T09:38:06.844Z,20.40
2023-05-11T09:40:51.033Z,20.50
2023-05-11T09:43:26.334Z,20.50
2023-05-11T09:45:55.575Z,20.40
2023-05-11T09:48:22.330Z,20.80
2023-05-11T09:50:50.483Z,21.30
2023-05-11T09:53:17.711Z,21.60
2023-05-11T09:55:55.725Z,21.90
2023-05-11T09:58:22.365Z,22.00
2023-05-11T10:00:53.665Z,22.00
2023-05-11T10:03:20.526Z,22.10
2023-05-11T10:06:00.979Z,22.00
2023-05-11T10:08:34.120Z,21.80
2023-05-11T10:11:02.585Z,21.70
2023-05-11T10:13:32.059Z,21.90
2023-05-11T10:16:03.281Z,22.10
2023-05-11T10:18:31.280Z,22.50
2023-05-11T10:20:58.616Z,22.80
2023-05-11T10:23:28.626Z,23.20
2023-05-11T10:25:57.054Z,23.30
2023-05-11T10:28:23.786Z,23.10
2023-05-11T10:30:52.450Z,22.80
2023-05-11T10:33:19.696Z,22.40
2023-05-11T10:35:46.507Z,22.20
2023-05-11T10:38:14.942Z,21.90
2023-05-11T10:40:45.443Z,21.50
2023-05-11T10:43:14.756Z,21.20
2023-05-11T10:46:03.073Z,21.20
2023-05-11T10:48:48.734Z,21.30
2023-05-11T10:51:26.427Z,21.10
2023-05-11T10:54:21.120Z,21.00
2023-05-11T10:57:11.538Z,21.00
2023-05-11T10:59:51.591Z,20.90
2023-05-11T11:02:18.857Z,20.90
2023-05-11T11:04:48.462Z,20.90
2023-05-11T11:07:18.350Z,20.80
2023-05-11T11:10:05.061Z,20.90
2023-05-11T11:12:34.822Z,20.90
2023-05-11T11:15:04.954Z,21.00
2023-05-11T11:17:34.620Z,20.90
2023-05-11T11:20:08.659Z,20.80
2023-05-11T11:22:35.448Z,20.70
2023-05-11T11:25:05.955Z,20.50
2023-05-11T11:27:41.704Z,20.20
2023-05-11T11:30:20.314Z,20.00
2023-05-11T11:32:48.580Z,20.10
2023-05-11T11:35:40.062Z,20.40
2023-05-11T11:38:10.522Z,21.00
2023-05-11T11:40:50.783Z,21.90
2023-05-11T11:43:23.464Z,22.50
2023-05-11T11:45:54.188Z,22.50
2023-05-11T11:48:21.834Z,22.40
2023-05-11T11:50:49.437Z,22.20
2023-05-11T11:53:38.121Z,22.10
2023-05-11T11:56:07.441Z,22.10
2023-05-11T11:58:43.144Z,22.40
2023-05-11T12:01:14.508Z,22.60
2023-05-11T12:03:43.608Z,22.60
2023-05-11T12:06:11.997Z,22.20
2023-05-11T12:08:40.710Z,21.60
2023-05-11T12:11:08.109Z,21.10
2023-05-11T12:13:35.724Z,20.80
2023-05-11T12:16:14.643Z,20.60
2023-05-11T12:18:42.550Z,20.30
2023-05-11T12:21:27.557Z,20.10
2023-05-11T12:23:56.632Z,20.00
2023-05-11T12:26:24.546Z,19.70
2023-05-11T12:28:52.122Z,19.50
2023-05-11T12:31:19.262Z,19.30
2023-05-11T12:33:46.942Z,19.10
2023-05-11T12:36:18.465Z,19.00
2023-05-11T12:38:46.185Z,18.90
2023-05-11T12:41:21.732Z,18.70
2023-05-11T12:43:50.514Z,18.60
2023-05-11T12:46:19.053Z,18.40
2023-05-11T12:48:49.673Z,18.20
2023-05-11T12:51:43.928Z,18.20
2023-05-11T12:54:10.592Z,18.30
2023-05-11T12:56:49.337Z,18.40
2023-05-11T12:59:34.497Z,18.50
2023-05-11T13:02:16.445Z,18.70
2023-05-11T13:04:44.287Z,19.00
2023-05-11T13:07:12.587Z,19.30
2023-05-11T13:09:40.378Z,19.60
2023-05-11T13:12:25.776Z,19.80
2023-05-11T13:15:08.758Z,20.20
2023-05-11T13:17:37.152Z,20.60
2023-05-11T13:20:19.854Z,21.10
2023-05-11T13:22:48.232Z,21.20
2023-05-11T13:25:18.468Z,21.20
2023-05-11T13:27:45.307Z,21.00
2023-05-11T13:30:12.381Z,20.80
2023-05-11T13:32:39.606Z,20.70
2023-05-11T13:35:07.175Z,20.70
2023-05-11T13:37:33.787Z,20.70
2023-05-11T13:40:00.753Z,20.80
2023-05-11T13:42:28.686Z,20.90
2023-05-11T13:44:55.351Z,20.80
2023-05-11T13:47:22.118Z,20.60
2023-05-11T13:49:48.858Z,20.50
2023-05-11T13:52:15.663Z,20.30
2023-05-11T13:54:42.224Z,20.00
2023-05-11T13:57:08.873Z,19.90
2023-05-11T13:59:35.529Z,19.70
2023-05-11T14:02:02.521Z,19.70
2023-05-11T14:04:29.154Z,19.80
2023-05-11T14:06:56.020Z,20.00
2023-05-11T14:09:23.453Z,20.00
2023-05-11T14:11:52.836Z,20.00
2023-05-11T14:14:19.430Z,19.90
2023-05-11T14:16:46.050Z,19.80
2023-05-11T14:19:12.796Z,19.70
2023-05-11T14:21:39.426Z,19.50
2023-05-11T14:24:12.148Z,19.40
2023-05-11T14:26:39.989Z,19.10
2023-05-11T14:29:07.011Z,18.80
2023-05-11T14:31:35.622Z,18.60
2023-05-11T14:34:03.693Z,18.60
2023-05-11T14:36:31.590Z,18.50
2023-05-11T14:38:58.340Z,18.30
2023-05-11T14:41:25.505Z,18.20
2023-05-11T14:43:52.211Z,18.20
2023-05-11T14:46:19.434Z,18.20
2023-05-11T14:48:46.288Z,18.20
2023-05-11T14:51:12.889Z,18.10
2023-05-11T14:53:39.463Z,17.90
2023-05-11T14:56:06.484Z,17.70
2023-05-11T14:58:33.147Z,17.50
2023-05-11T15:00:59.740Z,17.30
2023-05-11T15:03:26.579Z,17.20
2023-05-11T15:05:53.240Z,17.10
2023-05-11T15:08:29.526Z,17.10
2023-05-11T15:10:57.239Z,17.00
2023-05-11T15:13:24.054Z,17.10
2023-05-11T15:15:51.355Z,17.10
2023-05-11T15:18:18.215Z,17.10
2023-05-11T15:20:45.007Z,17.10
2023-05-11T15:23:16.289Z,17.20
2023-05-11T15:25:43.289Z,17.20
2023-05-11T15:28:11.267Z,17.10
2023-05-11T15:30:38.355Z,17.00
2023-05-11T15:33:05.049Z,16.90
2023-05-11T15:35:31.733Z,16.80
2023-05-11T15:37:58.315Z,16.60
2023-05-11T15:40:25.086Z,16.50
2023-05-11T15:42:51.674Z,16.30
2023-05-11T15:45:18.623Z,16.20
2023-05-11T15:47:45.482Z,16.10
2023-05-11T15:50:12.715Z,16.10
2023-05-11T15:52:42.849Z,15.90
2023-05-11T15:55:09.466Z,15.90
2023-05-11T15:57:36.724Z,15.70
2023-05-11T16:00:04.744Z,15.60
2023-05-11T16:02:31.463Z,15.50
2023-05-11T16:04:58.475Z,15.40
2023-05-11T16:07:25.725Z,15.30
2023-05-11T16:09:52.613Z,15.30
2023-05-11T16:12:19.169Z,15.20
2023-05-11T16:14:45.720Z,15.10
2023-05-11T16:17:12.425Z,15.10
2023-05-11T16:19:39.104Z,15.00
2023-05-11T16:22:05.696Z,14.90
2023-05-11T16:24:34.341Z,14.90
2023-05-11T16:27:01.504Z,14.70
2023-05-11T16:29:28.067Z,14.70
2023-05-11T16:31:54.740Z,14.60
2023-05-11T16:34:21.316Z,14.60
2023-05-11T16:36:47.872Z,14.50
2023-05-11T16:39:14.443Z,14.40
2023-05-11T16:41:41.002Z,14.40
2023-05-11T16:44:07.628Z,14.40
2023-05-11T16:46:34.277Z,14.40
2023-05-11T16:49:01.014Z,14.40
2023-05-11T16:51:27.998Z,14.40
2023-05-11T16:53:54.550Z,14.40
2023-05-11T16:56:21.345Z,14.40
2023-05-11T16:58:48.239Z,14.40
2023-05-11T17:01:14.927Z,14.40
2023-05-11T17:03:41.967Z,14.40
2023-05-11T17:06:11.447Z,14.40
2023-05-11T17:08:38.015Z,14.40
2023-05-11T17:11:04.711Z,14.30
2023-05-11T17:13:31.745Z,14.30
2023-05-11T17:15:58.345Z,14.30
2023-05-11T17:18:25.024Z,14.20
2023-05-11T17:20:53.560Z,14.10
2023-05-11T17:23:20.492Z,14.10
2023-05-11T17:25:47.540Z,14.00
2023-05-11T17:28:14.901Z,13.90
2023-05-11T17:33:13.808Z,13.70
2023-05-11T17:35:40.599Z,13.70
2023-05-11T17:38:07.513Z,13.60
2023-05-11T17:40:34.541Z,13.60
2023-05-11T17:43:02.205Z,13.50
2023-05-11T17:45:29.984Z,13.50
2023-05-11T17:47:57.073Z,13.40
2023-05-11T17:50:23.892Z,13.40
2023-05-11T17:52:51.341Z,13.30
2023-05-11T17:55:18.470Z,13.30
2023-05-11T17:57:45.318Z,13.30
2023-05-11T18:00:12.444Z,13.20
2023-05-11T18:02:39.211Z,13.20
2023-05-11T18:05:06.805Z,13.20
2023-05-11T18:07:33.384Z,13.10
2023-05-11T18:09:59.946Z,13.10
2023-05-11T18:12:26.903Z,13.10
2023-05-11T18:14:53.497Z,13.00
2023-05-11T18:17:20.069Z,13.00
2023-05-11T18:19:46.631Z,13.00
2023-05-11T18:22:13.200Z,12.90
2023-05-11T18:24:39.788Z,12.90
2023-05-11T18:27:06.378Z,12.90
2023-05-11T18:29:33.041Z,12.90
2023-05-11T18:31:59.706Z,12.90
2023-05-11T18:34:26.386Z,12.90
2023-05-11T18:36:53.021Z,12.80
2023-05-11T18:39:20.196Z,12.80
2023-05-11T18:41:47.079Z,12.80
2023-05-11T18:44:15.005Z,12.80
2023-05-11T18:46:41.929Z,12.80
2023-05-11T18:49:08.796Z,12.80
2023-05-11T18:51:35.387Z,12.70
2023-05-11T18:54:02.123Z,12.80
2023-05-11T18:56:29.703Z,12.70
2023-05-11T18:58:56.269Z,12.70
2023-05-11T19:01:26.085Z,12.70
2023-05-11T19:03:59.892Z,12.70
2023-05-11T19:06:26.469Z,12.70
2023-05-11T19:08:55.161Z,12.80
2023-05-11T19:11:22.783Z,12.70
2023-05-11T19:13:50.396Z,12.70
2023-05-11T19:16:17.127Z,12.70
2023-05-11T19:18:43.778Z,12.70
2023-05-11T19:21:10.758Z,12.70
2023-05-11T19:23:37.351Z,12.70
2023-05-11T19:26:04.022Z,12.70
2023-05-11T19:28:30.910Z,12.70
2023-05-11T19:31:01.779Z,12.70
2023-05-11T19:33:28.947Z,12.70
2023-05-11T19:35:55.635Z,12.70
2023-05-11T19:38:22.550Z,12.70
2023-05-11T19:40:49.192Z,12.70
2023-05-11T19:43:16.042Z,12.70
2023-05-11T19:45:45.105Z,12.70
2023-05-11T19:48:13.706Z,12.60
2023-05-11T19:50:41.232Z,12.60
2023-05-11T19:53:07.877Z,12.60
2023-05-11T19:55:34.501Z,12.60
2023-05-11T19:58:01.285Z,12.60
2023-05-11T20:00:28.043Z,12.60
2023-05-11T20:02:55.316Z,12.60
2023-05-11T20:05:22.035Z,12.60
2023-05-11T20:07:48.585Z,12.60
2023-05-11T20:10:15.186Z,12.60
2023-05-11T20:12:41.763Z,12.60
2023-05-11T20:15:08.931Z,12.60
2023-05-11T20:17:36.124Z,12.50
2023-05-11T20:20:03.297Z,12.60
2023-05-11T20:22:31.249Z,12.60
2023-05-11T20:24:57.809Z,12.60
2023-05-11T20:27:24.466Z,12.60
2023-05-11T20:29:51.174Z,12.60
2023-05-11T20:32:18.366Z,12.60
2023-05-11T20:34:44.944Z,12.60
2023-05-11T20:37:11.971Z,12.60
2023-05-11T20:39:38.720Z,12.60
2023-05-11T20:42:05.541Z,12.50
2023-05-11T20:44:32.146Z,12.50
2023-05-11T20:46:58.727Z,12.40
2023-05-11T20:49:35.078Z,12.40
2023-05-11T20:52:05.748Z,12.40
2023-05-11T20:54:34.700Z,12.40
2023-05-11T20:57:02.001Z,12.40
2023-05-11T21:01:59.580Z,12.40
2023-05-11T21:04:26.250Z,12.40
2023-05-11T21:06:56.061Z,12.40
2023-05-11T21:09:22.686Z,12.40
2023-05-11T21:11:49.278Z,12.40
2023-05-11T21:14:15.942Z,12.40
2023-05-11T21:16:42.670Z,12.40
2023-05-11T21:19:09.342Z,12.40
2023-05-11T21:21:35.940Z,12.40
2023-05-11T21:24:02.591Z,12.40
2023-05-11T21:26:29.286Z,12.50
2023-05-11T21:28:57.391Z,12.50
2023-05-11T21:31:24.100Z,12.50
2023-05-11T21:33:51.746Z,12.50
2023-05-11T21:36:18.390Z,12.50
2023-05-11T21:38:45.011Z,12.40
2023-05-11T21:41:11.651Z,12.40
2023-05-11T21:43:38.195Z,12.40
2023-05-11T21:46:05.129Z,12.40
2023-05-11T21:48:31.784Z,12.40
2023-05-11T21:50:58.353Z,12.40
2023-05-11T21:53:25.222Z,12.40
2023-05-11T21:55:51.828Z,12.40
2023-05-11T21:58:18.530Z,12.40
2023-05-11T22:00:46.018Z,12.40
2023-05-11T22:03:12.711Z,12.40
2023-05-11T22:05:39.334Z,12.40
2023-05-11T22:08:14.256Z,12.40
2023-05-11T22:10:42.918Z,12.40
2023-05-11T22:13:09.669Z,12.40
2023-05-11T22:15:36.374Z,12.40
2023-05-11T22:18:03.469Z,12.40
2023-05-11T22:20:31.682Z,12.40
2023-05-11T22:22:59.073Z,12.40
2023-05-11T22:25:25.846Z,12.40
2023-05-11T22:27:52.597Z,12.40
2023-05-11T22:30:19.728Z,12.40
2023-05-11T22:32:46.973Z,12.40
2023-05-11T22:35:13.675Z,12.40
2023-05-11T22:37:40.281Z,12.40
2023-05-11T22:40:07.544Z,12.40
2023-05-11T22:42:34.708Z,12.40
2023-05-11T22:45:01.317Z,12.40
2023-05-11T22:47:28.058Z,12.40
2023-05-11T22:49:54.708Z,12.40
2023-05-11T22:52:21.720Z,12.40
2023-05-11T22:54:53.089Z,12.40
2023-05-11T22:57:19.699Z,12.40
2023-05-11T22:59:46.701Z,12.40
2023-05-11T23:02:13.384Z,12.40
2023-05-11T23:04:40.115Z,12.40
2023-05-11T23:07:07.785Z,12.40
2023-05-11T23:09:35.039Z,12.40
2023-05-11T23:12:01.701Z,12.40
2023-05-11T23:14:28.718Z,12.40
2023-05-11T23:16:55.670Z,12.40
2023-05-11T23:19:22.276Z,12.40
2023-05-11T23:21:48.821Z,12.40
2023-05-11T23:24:15.492Z,12.40
2023-05-11T23:26:42.065Z,12.40
2023-05-11T23:29:08.775Z,12.30
2023-05-11T23:31:35.611Z,12.30
2023-05-11T23:34:02.238Z,12.30
2023-05-11T23:36:28.920Z,12.30
2023-05-11T23:38:55.571Z,12.30
2023-05-11T23:41:22.262Z,12.20
2023-05-11T23:43:48.823Z,12.20
2023-05-11T23:46:15.611Z,12.10
2023-05-11T23:48:42.235Z,12.10
2023-05-11T23:51:08.904Z,12.10
2023-05-11T23:53:35.501Z,12.10
2023-05-11T23:56:02.119Z,12.10
2023-05-11T23:58:28.751Z,12.10
